Cherokee, IA (51012)

4:23 AM CDT on July 03, 2015 (GMT -0500)
APRSWXNET | | Change Station
CLOSE
Current Station
Personal Weather Station
Location: Cherokee, IA
Elevation: 1312 ft
Nearby Weather Stations

Elev 1312 ft 42.76 °N, 95.52 °W | Updated 20 minutes ago

Fog
Fog
53 °F
Feels Like 53 °F
N
0
Wind Variable Wind from ESE
Gusts 0.0 mph

Today
High -- | Low -- °F
--% Chance of Precip.
Yesterday
High -- | Low -- °F
Precip. -- in
5:48 AM 9:03 PM
Full, 98% visible
Pressure 30.01 in
Visibility 0.2 miles
Clouds Overcast 100 ft
Dew Point 51 °F
Humidity 94%
Rainfall in
Snow Depth Not available.
UV 0 out of 12
Pollen .60 out of 12
Air Quality Not available.
Flu Activity Not available.
METAR KCKP 030915Z AUTO 00000KT 1/4SM FG OVC001 11/11 A3001 RMK AO2 T01100110

More Conditions Fewer Conditions

Pressure 30.01 in
Visibility 0.2 miles
Clouds Overcast 100 ft
Dew Point 51 °F
Humidity 94%
Rainfall in
Snow Depth Not available.
UV 0 out of 12
Pollen .60 out of 12
Air Quality Not available.
Flu Activity Not available.
METAR KCKP 030915Z AUTO 00000KT 1/4SM FG OVC001 11/11 A3001 RMK AO2 T01100110

More Conditions Fewer Conditions

10-Day Weather Forecast

×

Almanac

Astronomy

Jul. 03, 2015 Rise Set
Actual Time
Civil Twilight
Nautical Twilight
Astronomical Twilight
Moon
Length of Visible Light
Length of Day
Tomorrow will be .
, % of the Moon is Illuminated

Today's Extremes

State Highs State Lows

Community

WunderPhotos

Upload Photos

1,834,647 photos uploaded!

WunderBlogs® & News

Nearby

Air Quality

  Air Quality AQ Index Pollutant
Not available.

Snow Depth

Station Depth Elevation

Earthquake Activity

City Distance Mag. Time & Date
Minimum magnitude displayed is 2.5.

Coastal Water Temperatures

Place Temperature

Stations

Nearby Weather Stations

Station Location Temp. Windchill Dew Point Humidity Wind Precip. Elev Updated Type